< < Back
Terminal Aerodrome Forecast


Current Version              Previous Versions:   1  2  3  4  5  6  7  8  9  

Terminal Aerodrome Forecast

188
FTUS42 KILM 052340
TAFILM
TAF
KILM 052340Z 0600/0624 30010KT P6SM VCSH BKN045 OVC100
     FM060200 29005KT P6SM BKN050 OVC120
     FM060900 28006KT P6SM SCT007 BKN012
     FM061300 29012KT P6SM VCSH BKN045 OVC100
     FM061700 28010KT P6SM VCTS SCT035CB BKN045 OVC080=

Latest METAR

793
SAUS70 KWBC 060500 RRJ
MTRILM
METAR KILM 060453Z AUTO 30006KT 10SM CLR 11/08 A2969 RMK AO2 SLP054
T01110078 402170111


USA.gov is the U.S. government's official web portal to all federal, state and local government web resources and services.